createdAt,value
2017-11-10T00:01:44.255Z,22.90
2017-11-10T00:04:13.306Z,18.57
2017-11-10T00:06:42.338Z,20.50
2017-11-10T00:11:46.617Z,23.40
2017-11-10T00:14:16.664Z,21.37
2017-11-10T00:19:21.913Z,22.20
2017-11-10T00:21:50.955Z,19.67
2017-11-10T00:26:55.276Z,23.33
2017-11-10T00:29:24.309Z,20.27
2017-11-10T00:31:53.348Z,21.13
2017-11-10T00:34:22.397Z,18.60
2017-11-10T00:36:51.452Z,23.48
2017-11-10T00:41:55.675Z,24.58
2017-11-10T00:44:24.778Z,23.48
2017-11-10T00:46:53.858Z,19.63
2017-11-10T00:49:22.890Z,17.93
2017-11-10T00:51:51.919Z,21.57
2017-11-10T00:56:57.203Z,23.02
2017-11-10T00:59:27.215Z,22.45
2017-11-10T01:01:56.299Z,21.57
2017-11-10T01:04:26.348Z,19.57
2017-11-10T01:06:55.391Z,23.52
2017-11-10T01:11:59.640Z,23.40
2017-11-10T01:14:29.606Z,22.40
2017-11-10T01:17:00.612Z,20.30
2017-11-10T01:19:29.651Z,20.90
2017-11-10T01:21:58.704Z,24.35
2017-11-10T01:24:27.768Z,23.62
2017-11-10T01:26:58.536Z,19.27
2017-11-10T01:29:27.603Z,18.10
2017-11-10T01:31:56.693Z,22.90
2017-11-10T01:34:25.771Z,19.30
2017-11-10T01:36:54.802Z,18.00
2017-11-10T01:39:23.833Z,20.33
2017-11-10T01:41:52.897Z,21.37
2017-11-10T01:44:21.942Z,19.47
2017-11-10T01:46:50.971Z,18.10
2017-11-10T01:49:27.787Z,22.70
2017-11-10T01:51:56.841Z,19.13
2017-11-10T01:54:25.881Z,19.47
2017-11-10T02:02:08.172Z,21.58
2017-11-10T02:04:37.213Z,23.08
2017-11-10T02:07:06.265Z,22.30
2017-11-10T02:09:35.308Z,23.70
2017-11-10T02:12:04.355Z,20.57
2017-11-10T02:14:33.399Z,20.60
2017-11-10T02:17:02.447Z,20.57
2017-11-10T02:19:31.474Z,19.13
2017-11-10T02:22:06.788Z,21.17
2017-11-10T02:27:11.076Z,22.80
2017-11-10T02:29:40.136Z,21.27
2017-11-10T02:32:09.192Z,19.93
2017-11-10T02:37:13.421Z,24.30
2017-11-10T02:39:43.432Z,19.13
2017-11-10T02:42:12.503Z,19.80
2017-11-10T02:44:41.563Z,18.67
2017-11-10T02:47:10.605Z,19.17
2017-11-10T02:49:40.623Z,20.97
2017-11-10T02:52:09.663Z,20.83
2017-11-10T02:57:18.168Z,22.73
2017-11-10T02:59:48.118Z,20.43
2017-11-10T03:04:52.363Z,22.58
2017-11-10T03:07:21.412Z,20.80
2017-11-10T03:09:50.435Z,19.20
2017-11-10T03:12:20.432Z,21.03
2017-11-10T03:14:49.510Z,17.03
2017-11-10T03:19:53.808Z,20.90
2017-11-10T03:22:22.926Z,20.20
2017-11-10T03:24:51.964Z,20.30
2017-11-10T03:27:21.035Z,23.30
2017-11-10T03:29:50.972Z,20.23
2017-11-10T03:32:20.018Z,22.35
2017-11-10T03:34:49.068Z,18.13
2017-11-10T03:37:18.121Z,20.27
2017-11-10T03:39:47.207Z,16.63
2017-11-10T03:42:17.204Z,19.20
2017-11-10T03:44:46.312Z,16.40
2017-11-10T03:47:15.353Z,17.40
2017-11-10T03:49:44.403Z,15.80
2017-11-10T03:52:13.464Z,17.07
2017-11-10T03:54:42.522Z,17.00
2017-11-10T03:57:13.562Z,15.70
2017-11-10T03:59:43.578Z,17.57
2017-11-10T04:02:12.635Z,16.50
2017-11-10T04:04:42.689Z,18.67
2017-11-10T04:07:11.750Z,20.30
2017-11-10T04:09:41.801Z,18.10
2017-11-10T04:12:10.823Z,16.90
2017-11-10T04:14:40.002Z,14.80
2017-11-10T04:17:09.091Z,17.80
2017-11-10T04:19:47.758Z,17.63
2017-11-10T04:24:52.053Z,19.10
2017-11-10T04:29:56.453Z,19.67
2017-11-10T04:32:25.497Z,15.77
2017-11-10T04:34:54.604Z,15.67
2017-11-10T04:37:24.625Z,15.63
2017-11-10T04:39:53.663Z,14.10
2017-11-10T04:42:22.724Z,14.10
2017-11-10T04:44:51.768Z,17.07
2017-11-10T04:47:20.816Z,15.87
2017-11-10T04:49:49.863Z,18.33
2017-11-10T04:52:18.913Z,15.50
2017-11-10T04:54:47.960Z,13.93
2017-11-10T04:57:18.017Z,16.10
2017-11-10T04:59:47.062Z,14.83
2017-11-10T05:04:51.312Z,17.27
2017-11-10T05:07:20.368Z,17.60
2017-11-10T05:09:53.200Z,16.70
2017-11-10T05:12:26.402Z,15.30
2017-11-10T05:14:55.576Z,15.07
2017-11-10T05:19:59.897Z,16.17
2017-11-10T05:22:28.940Z,17.10
2017-11-10T05:24:58.032Z,16.60
2017-11-10T05:27:27.080Z,15.50
2017-11-10T05:29:56.136Z,14.00
2017-11-10T05:32:25.173Z,15.37
2017-11-10T05:34:54.215Z,14.40
2017-11-10T05:37:24.244Z,15.87
2017-11-10T05:39:53.275Z,12.93
2017-11-10T05:44:57.614Z,17.80
2017-11-10T05:47:26.684Z,16.80
2017-11-10T05:49:55.773Z,17.62
2017-11-10T05:52:24.849Z,15.17
2017-11-10T05:54:53.879Z,16.20
2017-11-10T05:57:23.845Z,15.03
2017-11-10T05:59:52.915Z,14.03
2017-11-10T06:02:21.948Z,16.98
2017-11-10T06:04:51.040Z,15.80
2017-11-10T06:07:21.075Z,17.30
2017-11-10T06:09:50.128Z,18.20
2017-11-10T06:12:19.191Z,15.23
2017-11-10T06:14:50.256Z,18.27
2017-11-10T06:17:19.299Z,15.73
2017-11-10T06:19:49.335Z,13.67
2017-11-10T06:22:19.344Z,15.80
2017-11-10T06:24:50.305Z,16.87
2017-11-10T06:27:19.347Z,14.87
2017-11-10T06:29:48.391Z,16.00
2017-11-10T06:32:18.446Z,15.80
2017-11-10T06:34:47.512Z,16.33
2017-11-10T06:37:16.609Z,18.87
2017-11-10T06:39:48.671Z,17.60
2017-11-10T06:42:17.739Z,18.33
2017-11-10T06:44:46.806Z,17.30
2017-11-10T06:47:15.955Z,19.35
2017-11-10T06:49:44.991Z,18.67
2017-11-10T06:52:14.925Z,18.77
2017-11-10T06:57:19.220Z,20.52
2017-11-10T06:59:49.252Z,20.60
2017-11-10T07:02:18.303Z,17.43
2017-11-10T07:04:47.368Z,21.45
2017-11-10T07:07:17.465Z,18.17
2017-11-10T07:09:47.488Z,18.90
2017-11-10T07:12:18.431Z,16.70
2017-11-10T07:14:47.498Z,18.87
2017-11-10T07:17:16.604Z,18.00
2017-11-10T07:19:45.701Z,16.40
2017-11-10T07:22:14.747Z,15.63
2017-11-10T07:24:43.839Z,14.60
2017-11-10T07:27:13.863Z,17.53
2017-11-10T07:29:42.893Z,16.40
2017-11-10T07:32:11.972Z,16.67
2017-11-10T07:34:41.971Z,20.73
2017-11-10T07:37:11.263Z,19.00
2017-11-10T07:42:16.659Z,22.60
2017-11-10T07:44:45.753Z,17.90
2017-11-10T07:47:14.811Z,19.43
2017-11-10T07:49:43.847Z,18.77
2017-11-10T07:52:12.931Z,21.55
2017-11-10T07:54:42.960Z,19.30
2017-11-10T07:57:12.006Z,17.80
2017-11-10T07:59:41.051Z,18.40
2017-11-10T08:02:10.116Z,21.80
2017-11-10T08:04:40.203Z,19.80
2017-11-10T08:07:09.277Z,19.80
2017-11-10T08:09:38.328Z,17.80
2017-11-10T08:12:07.372Z,21.13
2017-11-10T08:14:36.561Z,17.60
2017-11-10T08:17:06.604Z,21.10
2017-11-10T08:19:35.663Z,19.30
2017-11-10T08:24:39.949Z,21.58
2017-11-10T08:27:09.144Z,20.13
2017-11-10T08:29:38.184Z,19.70
2017-11-10T08:32:08.165Z,18.00
2017-11-10T08:34:37.208Z,20.30
2017-11-10T08:37:06.287Z,22.77
2017-11-10T08:42:11.494Z,23.20
2017-11-10T08:44:40.581Z,21.30
2017-11-10T08:47:09.640Z,19.10
2017-11-10T08:49:38.710Z,22.33
2017-11-10T08:52:07.751Z,20.07
2017-11-10T08:54:36.794Z,20.03
2017-11-10T08:57:05.838Z,20.00
2017-11-10T08:59:34.896Z,18.10
2017-11-10T09:02:03.983Z,21.03
2017-11-10T09:04:33.036Z,20.97
2017-11-10T09:07:02.086Z,19.63
2017-11-10T09:09:32.113Z,22.10
2017-11-10T09:12:01.176Z,21.40
2017-11-10T09:14:30.197Z,21.87
2017-11-10T09:16:59.259Z,20.80
2017-11-10T09:19:32.623Z,22.50
2017-11-10T09:22:01.893Z,21.07
2017-11-10T09:24:30.936Z,23.60
2017-11-10T09:27:00.219Z,22.02
2017-11-10T09:32:11.235Z,22.27
2017-11-10T09:34:45.668Z,17.83
2017-11-10T09:37:20.651Z,19.93
2017-11-10T09:39:49.931Z,21.47
2017-11-10T09:45:14.737Z,21.60
2017-11-10T09:47:49.299Z,18.93
2017-11-10T09:50:25.634Z,19.77
2017-11-10T09:52:59.738Z,18.53
2017-11-10T09:55:28.780Z,18.67
2017-11-10T09:58:02.558Z,18.00
2017-11-10T10:00:49.296Z,19.60
2017-11-10T10:06:20.808Z,21.20
2017-11-10T10:08:55.717Z,20.37
2017-11-10T10:14:37.792Z,21.62
2017-11-10T10:17:12.501Z,19.43
2017-11-10T10:19:42.381Z,18.80
2017-11-10T10:24:52.685Z,22.50
2017-11-10T10:27:22.724Z,21.75
2017-11-10T10:29:51.800Z,21.65
2017-11-10T10:32:20.841Z,19.37
2017-11-10T10:34:49.888Z,21.53
2017-11-10T10:37:18.936Z,18.10
2017-11-10T10:39:47.980Z,20.52
2017-11-10T10:44:52.297Z,21.17
2017-11-10T10:47:21.397Z,18.80
2017-11-10T10:49:50.439Z,18.57
2017-11-10T10:52:19.545Z,15.80
2017-11-10T10:54:48.652Z,17.40
2017-11-10T10:57:17.704Z,15.10
2017-11-10T10:59:46.746Z,14.93
2017-11-10T11:02:15.784Z,18.20
2017-11-10T11:04:45.779Z,14.33
2017-11-10T11:07:14.879Z,14.63
2017-11-10T11:09:43.937Z,16.90
2017-11-10T11:12:12.979Z,17.47
2017-11-10T11:14:42.027Z,17.20
2017-11-10T11:17:11.505Z,16.90
2017-11-10T11:19:40.568Z,17.77
2017-11-10T11:22:10.460Z,18.57
2017-11-10T11:24:40.504Z,16.77
2017-11-10T11:27:10.271Z,15.90
2017-11-10T11:29:39.328Z,19.17
2017-11-10T11:32:09.757Z,16.23
2017-11-10T11:34:39.862Z,17.33
2017-11-10T11:37:10.110Z,15.63
2017-11-10T11:39:39.292Z,19.93
2017-11-10T11:42:10.130Z,17.17
2017-11-10T11:44:39.170Z,18.20
2017-11-10T11:47:09.702Z,18.60
2017-11-10T11:49:38.739Z,17.50
2017-11-10T11:52:08.444Z,16.77
2017-11-10T11:54:37.492Z,18.47
2017-11-10T11:57:07.764Z,18.23
2017-11-10T11:59:36.804Z,19.90
2017-11-10T12:02:06.135Z,20.67
2017-11-10T12:04:35.205Z,20.70
2017-11-10T12:07:04.229Z,18.50
2017-11-10T12:09:35.500Z,18.13
2017-11-10T12:12:04.585Z,18.90
2017-11-10T12:17:08.826Z,19.23
2017-11-10T12:19:39.693Z,19.47
2017-11-10T12:22:08.712Z,18.87
2017-11-10T12:24:39.745Z,19.53
2017-11-10T12:27:08.792Z,21.07
2017-11-10T12:29:40.253Z,20.00
2017-11-10T12:32:09.272Z,16.77
2017-11-10T12:34:39.786Z,19.53
2017-11-10T12:37:09.770Z,18.13
2017-11-10T12:39:38.876Z,16.70
2017-11-10T12:42:07.944Z,19.93
2017-11-10T12:44:37.205Z,19.20
2017-11-10T12:47:06.293Z,19.40
2017-11-10T12:49:36.972Z,17.57
2017-11-10T12:52:06.012Z,17.60
2017-11-10T12:54:43.368Z,18.13
2017-11-10T12:57:12.391Z,20.03
2017-11-10T12:59:42.264Z,18.47
2017-11-10T13:02:11.353Z,15.90
2017-11-10T13:04:42.096Z,16.50
2017-11-10T13:09:46.368Z,19.62
2017-11-10T13:14:50.832Z,21.20
2017-11-10T13:19:56.281Z,20.67
2017-11-10T13:22:25.310Z,18.53
2017-11-10T13:24:55.249Z,20.88
2017-11-10T13:27:24.277Z,19.93
2017-11-10T13:29:53.323Z,19.73
2017-11-10T13:32:22.393Z,19.00
2017-11-10T13:37:30.325Z,21.12
2017-11-10T13:39:59.479Z,20.20
2017-11-10T13:45:03.754Z,20.33
2017-11-10T13:50:09.097Z,19.52
2017-11-10T13:52:39.938Z,21.77
2017-11-10T13:55:08.987Z,20.45
2017-11-10T13:57:40.865Z,18.80
2017-11-10T14:00:09.913Z,20.20
2017-11-10T14:05:19.099Z,18.07
2017-11-10T14:07:48.175Z,18.12
2017-11-10T14:10:17.229Z,17.80
2017-11-10T14:17:57.739Z,22.30
2017-11-10T14:20:28.191Z,16.70
2017-11-10T14:22:57.268Z,17.53
2017-11-10T14:25:27.367Z,20.10
2017-11-10T14:27:56.410Z,37.50
2017-11-10T14:30:26.912Z,28.60
2017-11-10T14:32:55.953Z,24.55
2017-11-10T14:35:29.399Z,31.83
2017-11-10T14:37:58.421Z,26.90
2017-11-10T14:40:28.611Z,27.87
2017-11-10T14:42:57.799Z,22.33
2017-11-10T14:45:28.048Z,21.97
2017-11-10T14:47:57.059Z,20.60
2017-11-10T14:50:27.201Z,21.60
2017-11-10T14:52:56.236Z,19.73
2017-11-10T14:55:26.322Z,22.75
2017-11-10T14:57:56.264Z,21.13
2017-11-10T15:00:41.444Z,22.63
2017-11-10T15:05:46.714Z,22.50
2017-11-10T15:08:15.755Z,22.10
2017-11-10T15:10:45.823Z,20.10
2017-11-10T15:13:16.879Z,18.53
2017-11-10T15:15:45.919Z,18.60
2017-11-10T15:18:14.968Z,20.90
2017-11-10T15:20:51.627Z,19.20
2017-11-10T15:23:21.949Z,21.00
2017-11-10T15:25:51.012Z,19.83
2017-11-10T15:28:20.132Z,17.80
2017-11-10T15:30:49.180Z,18.70
2017-11-10T15:33:18.228Z,20.95
2017-11-10T15:35:47.346Z,17.57
2017-11-10T15:38:16.559Z,17.57
2017-11-10T15:40:45.612Z,16.67
2017-11-10T15:43:16.609Z,16.70
2017-11-10T15:45:46.686Z,16.13
2017-11-10T15:48:15.727Z,16.50
2017-11-10T15:50:48.162Z,18.40
2017-11-10T15:53:17.208Z,17.80
2017-11-10T15:55:46.253Z,15.97
2017-11-10T15:58:19.905Z,17.40
2017-11-10T16:03:24.164Z,19.35
2017-11-10T16:05:53.201Z,14.70
2017-11-10T16:08:22.264Z,16.77
2017-11-10T16:10:51.303Z,17.80
2017-11-10T16:13:21.473Z,19.05
2017-11-10T16:15:50.507Z,17.73
2017-11-10T16:18:19.552Z,15.17
2017-11-10T16:20:48.600Z,14.83
2017-11-10T16:23:19.802Z,15.27
2017-11-10T16:25:48.820Z,16.90
2017-11-10T16:28:22.022Z,16.10
2017-11-10T16:30:51.066Z,15.03
2017-11-10T16:33:26.151Z,15.03
2017-11-10T16:36:00.337Z,14.43
2017-11-10T16:38:32.066Z,15.10
2017-11-10T16:41:07.093Z,13.70
2017-11-10T16:43:43.914Z,15.47
2017-11-10T16:46:13.511Z,13.63
2017-11-10T16:51:26.195Z,14.57
2017-11-10T16:54:00.895Z,13.90
2017-11-10T16:56:30.663Z,13.60
2017-11-10T16:59:05.577Z,15.20
2017-11-10T17:04:11.492Z,14.10
2017-11-10T17:06:40.537Z,10.83
2017-11-10T17:09:09.585Z,10.77
2017-11-10T17:11:38.598Z,9.97
2017-11-10T17:14:07.688Z,11.70
2017-11-10T17:16:36.732Z,9.50
2017-11-10T17:19:05.761Z,10.05
2017-11-10T17:21:34.805Z,8.13
2017-11-10T17:24:03.830Z,8.97
2017-11-10T17:26:32.957Z,8.50
2017-11-10T17:29:03.919Z,9.83
2017-11-10T17:31:32.961Z,10.95
2017-11-10T17:34:06.959Z,8.60
2017-11-10T17:36:35.984Z,10.80
2017-11-10T17:41:43.126Z,12.45
2017-11-10T17:44:13.055Z,9.50
2017-11-10T17:46:42.181Z,10.85
2017-11-10T17:49:11.219Z,9.13
2017-11-10T17:51:40.391Z,8.77
2017-11-10T17:54:09.431Z,9.73
2017-11-10T17:56:38.467Z,8.10
2017-11-10T17:59:07.516Z,8.50
2017-11-10T18:01:36.546Z,8.83
2017-11-10T18:04:05.658Z,7.93
2017-11-10T18:06:35.430Z,7.37
2017-11-10T18:09:04.799Z,9.00
2017-11-10T18:11:33.978Z,9.17
2017-11-10T18:16:45.702Z,10.35
2017-11-10T18:19:14.729Z,9.37
2017-11-10T18:21:43.779Z,9.30
2017-11-10T18:24:12.816Z,7.90
2017-11-10T18:29:17.060Z,11.15
2017-11-10T18:31:47.031Z,9.70
2017-11-10T18:34:16.060Z,9.17
2017-11-10T18:39:20.344Z,9.40
2017-11-10T18:41:49.390Z,10.00
2017-11-10T18:44:18.433Z,8.20
2017-11-10T18:46:47.472Z,6.93
2017-11-10T18:49:24.923Z,8.40
2017-11-10T18:51:53.959Z,6.63
2017-11-10T18:54:22.980Z,5.93
2017-11-10T18:56:52.098Z,6.90
2017-11-10T18:59:21.171Z,6.47
2017-11-10T19:01:50.207Z,6.90
2017-11-10T19:04:19.476Z,6.70
2017-11-10T19:06:48.700Z,6.33
2017-11-10T19:09:17.736Z,5.73
2017-11-10T19:11:46.774Z,6.30
2017-11-10T19:14:15.803Z,5.70
2017-11-10T19:16:44.896Z,5.33
2017-11-10T19:19:13.920Z,5.73
2017-11-10T19:21:43.000Z,4.50
2017-11-10T19:24:12.126Z,4.50
2017-11-10T19:26:41.178Z,6.22
2017-11-10T19:29:10.195Z,6.65
2017-11-10T19:34:14.449Z,5.43
2017-11-10T19:36:43.495Z,4.90
2017-11-10T19:39:12.533Z,4.10
2017-11-10T19:44:16.751Z,5.47
2017-11-10T19:46:47.803Z,5.05
2017-11-10T19:49:16.930Z,4.60
2017-11-10T19:51:45.954Z,4.70
2017-11-10T19:54:14.985Z,4.53
2017-11-10T19:56:45.070Z,5.03
2017-11-10T19:59:14.284Z,4.53
2017-11-10T20:01:45.324Z,4.00
2017-11-10T20:04:14.390Z,4.40
2017-11-10T20:06:45.366Z,3.93
2017-11-10T20:09:14.476Z,4.80
2017-11-10T20:11:43.562Z,5.17
2017-11-10T20:14:13.804Z,5.20
2017-11-10T20:16:42.994Z,5.93
2017-11-10T20:21:47.346Z,6.30
2017-11-10T20:24:20.717Z,6.82
2017-11-10T20:26:53.909Z,5.97
2017-11-10T20:29:29.003Z,4.17
2017-11-10T20:32:02.427Z,5.43
2017-11-10T20:34:36.110Z,5.47
2017-11-10T20:37:13.279Z,6.10
2017-11-10T20:42:22.152Z,6.15
2017-11-10T20:44:56.093Z,5.23
2017-11-10T20:47:27.249Z,5.47
2017-11-10T20:50:00.926Z,6.33
2017-11-10T20:52:33.147Z,5.27
2017-11-10T20:57:40.733Z,5.93
2017-11-10T21:00:13.801Z,6.17
2017-11-10T21:02:47.656Z,4.20
2017-11-10T21:05:20.036Z,4.70
2017-11-10T21:08:02.224Z,5.57
2017-11-10T21:10:32.575Z,6.57
2017-11-10T21:13:05.291Z,5.20
2017-11-10T21:15:38.385Z,6.13
2017-11-10T21:18:11.386Z,7.20
2017-11-10T21:20:43.839Z,6.00
2017-11-10T21:23:17.749Z,5.23
2017-11-10T21:25:51.380Z,5.30
2017-11-10T21:28:24.988Z,4.37
2017-11-10T21:30:54.185Z,5.27
2017-11-10T21:33:26.064Z,6.30
2017-11-10T21:38:34.327Z,7.10
2017-11-10T21:41:10.874Z,6.20
2017-11-10T21:43:46.843Z,6.13
2017-11-10T21:46:19.692Z,6.23
2017-11-10T21:48:52.898Z,4.97
2017-11-10T21:51:27.213Z,5.10
2017-11-10T21:56:31.590Z,6.85
2017-11-10T21:59:00.643Z,5.60
2017-11-10T22:01:30.020Z,5.20
2017-11-10T22:03:59.206Z,5.57
2017-11-10T22:06:28.256Z,5.90
2017-11-10T22:08:57.356Z,4.43
2017-11-10T22:11:26.672Z,5.23
2017-11-10T22:13:56.684Z,5.30
2017-11-10T22:16:25.777Z,5.30
2017-11-10T22:18:54.814Z,4.40
2017-11-10T22:21:23.858Z,4.03
2017-11-10T22:23:53.040Z,4.80
2017-11-10T22:26:22.184Z,4.33
2017-11-10T22:28:51.805Z,5.67
2017-11-10T22:31:20.877Z,4.23
2017-11-10T22:33:49.951Z,4.97
2017-11-10T22:36:19.100Z,5.90
2017-11-10T22:38:49.127Z,5.97
2017-11-10T22:41:18.232Z,5.67
2017-11-10T22:43:47.323Z,5.37
2017-11-10T22:46:16.717Z,5.70
2017-11-10T22:48:50.224Z,4.23
2017-11-10T22:51:19.354Z,4.77
2017-11-10T22:53:48.464Z,5.40
2017-11-10T22:56:19.461Z,5.93
2017-11-10T22:58:49.514Z,6.53
2017-11-10T23:01:18.534Z,6.60
2017-11-10T23:03:47.673Z,6.47
2017-11-10T23:06:20.545Z,7.87
2017-11-10T23:08:52.244Z,7.17
2017-11-10T23:11:25.581Z,6.20
2017-11-10T23:13:57.945Z,9.30
2017-11-10T23:16:29.132Z,7.90
2017-11-10T23:18:59.149Z,7.97
2017-11-10T23:21:31.262Z,9.20
2017-11-10T23:24:02.443Z,9.17
2017-11-10T23:29:07.625Z,10.48
2017-11-10T23:31:40.084Z,9.50
2017-11-10T23:36:45.076Z,10.48
2017-11-10T23:39:18.305Z,11.80
2017-11-10T23:41:48.463Z,9.00
2017-11-10T23:46:56.500Z,11.60
2017-11-10T23:49:32.992Z,12.27
2017-11-10T23:52:05.537Z,10.10
2017-11-10T23:54:37.663Z,9.80
2017-11-10T23:57:10.977Z,10.80
2017-11-10T23:59:42.385Z,10.50
